Time;durP1;ratioP1;P1;durP2;ratioP2;P2;SDS_P1;SDS_P2;PMS_P1;PMS_P2;Temp;Humidity;BMP_temperature;BMP_pressure;BME280_temperature;BME280_humidity;BME280_pressure;Samples;Min_cycle;Max_cycle;Signal;HPM_P1;HPM_P2
2022/07/11 00:01:17;;;;;;;3.58;3.25;;;;;;;14.74;72.31;93421.88;5112542;28;20507;-40
2022/07/11 00:03:43;;;;;;;4.65;3.45;;;;;;;14.70;73.03;93433.41;5112523;28;20096;-40
2022/07/11 00:06:08;;;;;;;2.83;2.55;;;;;;;14.68;73.23;93433.25;5112454;28;20477;-40
2022/07/11 00:08:34;;;;;;;4.53;3.15;;;;;;;14.51;74.20;93427.00;5112276;28;20038;-41
2022/07/11 00:10:59;;;;;;;4.00;3.60;;;;;;;14.36;74.85;93427.91;5111999;28;20089;-42
2022/07/11 00:13:24;;;;;;;14.25;13.55;;;;;;;14.44;74.16;93420.94;5112223;28;20044;-43
2022/07/11 00:15:50;;;;;;;3.22;2.92;;;;;;;14.55;73.84;93421.75;5112299;28;20503;-41
2022/07/11 00:18:15;;;;;;;4.65;3.30;;;;;;;14.51;73.59;93424.94;5112057;28;20499;-45
2022/07/11 00:20:41;;;;;;;3.30;3.08;;;;;;;14.22;74.20;93418.44;5112220;28;20551;-43
2022/07/11 00:23:06;;;;;;;6.45;3.20;;;;;;;14.04;74.81;93422.50;5111797;28;20050;-42
2022/07/11 00:25:32;;;;;;;3.30;3.00;;;;;;;14.16;74.75;93426.28;5111816;28;20110;-42
2022/07/11 00:27:57;;;;;;;6.18;2.70;;;;;;;14.15;74.99;93425.53;5111641;28;20027;-42
2022/07/11 00:30:22;;;;;;;3.92;3.20;;;;;;;14.25;74.29;93420.06;5111580;28;20027;-41
2022/07/11 00:32:48;;;;;;;5.53;3.08;;;;;;;14.16;74.27;93420.72;5111635;28;20024;-40
2022/07/11 00:35:13;;;;;;;3.95;3.60;;;;;;;14.18;74.35;93420.88;5111841;28;20031;-40
2022/07/11 00:37:39;;;;;;;3.83;3.45;;;;;;;14.25;74.18;93422.84;5110960;28;20613;-41
2022/07/11 00:40:05;;;;;;;6.82;3.92;;;;;;;14.09;74.57;93411.19;5110920;28;20043;-43
2022/07/11 00:42:31;;;;;;;4.15;3.55;;;;;;;14.11;74.42;93430.03;5110698;28;20031;-41
2022/07/11 00:44:57;;;;;;;3.70;3.40;;;;;;;14.17;73.82;93422.91;5111537;28;20023;-41
2022/07/11 00:47:22;;;;;;;4.13;3.55;;;;;;;14.13;73.90;93424.63;5111211;28;20631;-41
2022/07/11 00:49:48;;;;;;;4.32;3.92;;;;;;;13.98;75.06;93435.91;5111254;28;20038;-41
2022/07/11 00:52:13;;;;;;;11.20;4.35;;;;;;;13.78;75.23;93432.22;5110271;28;20107;-41
2022/07/11 00:54:38;;;;;;;5.78;3.13;;;;;;;13.75;74.66;93433.38;5111216;28;20056;-41
2022/07/11 00:57:04;;;;;;;4.18;3.20;;;;;;;13.66;74.76;93420.88;5111150;28;20030;-41
2022/07/11 00:59:30;;;;;;;3.17;2.88;;;;;;;13.62;75.18;93426.09;5111395;28;20094;-41
2022/07/11 01:01:56;;;;;;;4.00;2.88;;;;;;;13.58;75.13;93447.94;5111337;27;20152;-41
2022/07/11 01:04:22;;;;;;;4.30;2.95;;;;;;;13.71;74.27;93449.69;5111215;28;20740;-41
2022/07/11 01:06:47;;;;;;;2.92;2.65;;;;;;;13.68;74.42;93448.06;5111303;28;20035;-41
2022/07/11 01:09:13;;;;;;;5.78;2.67;;;;;;;13.65;74.12;93451.97;5111232;28;20027;-41
2022/07/11 01:11:38;;;;;;;5.63;3.10;;;;;;;13.69;74.31;93457.84;5113538;27;20495;-41
2022/07/11 01:14:03;;;;;;;6.97;2.78;;;;;;;13.44;74.78;93449.56;5128370;27;20408;-41
2022/07/11 01:16:30;;;;;;;3.95;2.22;;;;;;;13.60;73.59;93448.13;5131232;27;20039;-43
2022/07/11 01:18:56;;;;;;;4.15;2.72;;;;;;;13.53;73.83;93446.16;5131582;27;20023;-43
2022/07/11 01:21:24;;;;;;;5.25;2.72;;;;;;;13.51;73.84;93445.25;5120056;27;20035;-41
2022/07/11 01:23:52;;;;;;;2.40;2.20;;;;;;;13.54;73.46;93458.72;5110419;28;20093;-44
2022/07/11 01:26:19;;;;;;;3.05;2.75;;;;;;;13.37;74.33;93449.63;5109508;28;20496;-41
2022/07/11 01:28:45;;;;;;;4.60;2.20;;;;;;;13.32;74.59;93462.41;5110256;28;20458;-41
2022/07/11 01:31:11;;;;;;;3.28;2.60;;;;;;;13.34;74.60;93457.03;5110412;28;20098;-43
2022/07/11 01:33:36;;;;;;;7.18;2.42;;;;;;;13.24;73.86;93467.28;5110087;28;20034;-43
2022/07/11 01:36:02;;;;;;;3.15;2.70;;;;;;;13.32;73.53;93459.63;5110250;28;20448;-40
2022/07/11 01:38:28;;;;;;;2.47;2.28;;;;;;;13.03;74.24;93455.75;5109831;28;20500;-40
2022/07/11 01:40:54;;;;;;;5.20;2.58;;;;;;;12.94;74.39;93459.16;5110004;28;20115;-41
2022/07/11 01:43:19;;;;;;;2.65;2.45;;;;;;;13.06;74.30;93453.94;5110650;28;20073;-40
2022/07/11 01:45:44;;;;;;;8.32;2.28;;;;;;;13.15;73.31;93462.34;5110369;28;20414;-42
2022/07/11 01:48:10;;;;;;;2.80;2.60;;;;;;;13.18;73.17;93468.81;5110410;28;20062;-41
2022/07/11 01:50:35;;;;;;;5.05;3.50;;;;;;;13.18;72.14;93458.44;5109218;28;20559;-40
2022/07/11 01:53:02;;;;;;;6.43;3.40;;;;;;;13.14;72.32;93455.34;5110575;28;20527;-41
2022/07/11 01:55:27;;;;;;;5.82;3.58;;;;;;;12.87;73.29;93457.88;5114944;28;20028;-40
2022/07/11 01:57:53;;;;;;;3.92;3.53;;;;;;;12.95;72.93;93450.25;5113819;28;20381;-41
2022/07/11 02:00:18;;;;;;;8.55;3.95;;;;;;;12.89;73.02;93446.97;5114851;28;20412;-40
2022/07/11 02:02:44;;;;;;;12.05;3.60;;;;;;;12.91;73.27;93449.16;5114575;28;20050;-40
2022/07/11 02:05:09;;;;;;;4.47;3.70;;;;;;;12.90;72.92;93445.69;5114258;28;20027;-41
2022/07/11 02:10:18;;;;;;;5.65;3.55;;;;;;;12.86;72.88;93450.16;5094361;28;20038;-40
2022/07/11 02:12:44;;;;;;;7.68;3.25;;;;;;;12.82;73.18;93458.13;5105729;28;20020;-41
2022/07/11 02:15:09;;;;;;;3.85;3.20;;;;;;;12.83;72.85;93454.78;5094210;28;20458;-42
2022/07/11 02:17:35;;;;;;;6.82;3.10;;;;;;;12.83;73.13;93448.50;5094108;28;20537;-41
2022/07/11 02:20:00;;;;;;;4.55;3.47;;;;;;;12.90;73.17;93448.47;5093916;28;20028;-41
2022/07/11 02:22:27;;;;;;;3.30;3.00;;;;;;;12.89;72.97;93454.53;5093587;28;20504;-41
2022/07/11 02:24:52;;;;;;;3.17;2.88;;;;;;;12.69;73.84;93456.31;5094093;28;20032;-41
2022/07/11 02:27:17;;;;;;;8.48;3.22;;;;;;;12.72;74.08;93449.66;5093855;28;20454;-41
2022/07/11 02:29:43;;;;;;;4.65;2.97;;;;;;;12.74;73.27;93454.63;5093958;28;20120;-41
2022/07/11 02:32:08;;;;;;;4.30;3.38;;;;;;;12.31;74.84;93455.03;5097564;28;20027;-41
2022/07/11 02:34:34;;;;;;;4.95;3.95;;;;;;;12.22;74.66;93452.84;5114138;28;20028;-41
2022/07/11 02:36:59;;;;;;;6.25;3.65;;;;;;;12.16;73.82;93453.81;5114047;28;20057;-40
2022/07/11 02:39:25;;;;;;;4.57;3.50;;;;;;;12.25;73.96;93451.75;5109972;28;20050;-40
2022/07/11 02:41:50;;;;;;;3.42;3.05;;;;;;;12.01;73.66;93451.09;5096385;28;20058;-46
2022/07/11 02:44:16;;;;;;;6.85;3.70;;;;;;;11.92;73.91;93443.38;5093474;28;20405;-47
2022/07/11 02:46:41;;;;;;;4.72;3.30;;;;;;;11.93;74.01;93447.59;5111254;28;20535;-42
2022/07/11 02:49:07;;;;;;;4.13;3.28;;;;;;;11.90;74.34;93451.50;5113592;28;20024;-41
2022/07/11 02:51:32;;;;;;;6.55;3.90;;;;;;;11.87;75.50;93451.84;5112944;28;20039;-41
2022/07/11 02:53:58;;;;;;;3.65;3.35;;;;;;;11.80;76.53;93453.34;5113640;28;20019;-40
2022/07/11 02:56:23;;;;;;;4.10;3.70;;;;;;;11.96;76.52;93460.31;5113187;28;20183;-40
2022/07/11 02:58:49;;;;;;;5.00;3.63;;;;;;;11.90;77.47;93459.03;5113201;28;20096;-40
2022/07/11 03:01:14;;;;;;;6.03;3.17;;;;;;;11.97;76.47;93472.13;5112895;28;20024;-40
2022/07/11 03:03:40;;;;;;;3.83;3.42;;;;;;;11.93;76.42;93477.31;5112259;28;20055;-41
2022/07/11 03:06:05;;;;;;;3.97;3.45;;;;;;;12.04;75.87;93472.09;5112699;28;20023;-40
2022/07/11 03:08:30;;;;;;;3.90;3.38;;;;;;;12.14;74.60;93473.00;5113364;28;20473;-41
2022/07/11 03:10:56;;;;;;;4.97;3.53;;;;;;;12.12;74.67;93478.38;5113271;28;20023;-40
2022/07/11 03:13:21;;;;;;;4.43;3.33;;;;;;;11.96;75.49;93482.44;5112875;28;20577;-41
2022/07/11 03:15:47;;;;;;;4.57;3.78;;;;;;;12.04;75.54;93488.69;5113009;28;20020;-42
2022/07/11 03:18:12;;;;;;;3.67;3.20;;;;;;;11.96;74.56;93490.00;5112892;28;20621;-43
2022/07/11 03:20:38;;;;;;;5.25;3.22;;;;;;;11.92;75.38;93495.94;5113152;28;20512;-42
2022/07/11 03:23:03;;;;;;;7.18;3.80;;;;;;;11.76;75.71;93500.00;5112701;28;20031;-41
2022/07/11 03:25:29;;;;;;;6.53;3.22;;;;;;;11.79;75.67;93498.16;5111728;28;20483;-42
2022/07/11 03:27:54;;;;;;;3.88;3.42;;;;;;;11.72;75.43;93499.66;5112898;28;20076;-42
2022/07/11 03:30:20;;;;;;;6.22;4.43;;;;;;;11.74;75.12;93501.84;5113037;28;20492;-43
2022/07/11 03:32:45;;;;;;;10.07;5.95;;;;;;;11.72;75.67;93504.44;5113102;28;20034;-42
2022/07/11 03:37:55;;;;;;;8.00;6.40;;;;;;;11.52;75.34;93475.66;5112906;28;20022;-40
2022/07/11 03:40:21;;;;;;;9.95;6.60;;;;;;;11.72;75.42;93501.66;5112733;28;20036;-40
2022/07/11 03:42:46;;;;;;;6.43;5.82;;;;;;;11.72;75.46;93513.47;5112695;28;20027;-41
2022/07/11 03:45:12;;;;;;;14.73;6.70;;;;;;;11.60;76.36;93512.34;5112894;28;20039;-40
2022/07/11 03:47:38;;;;;;;5.75;5.15;;;;;;;11.65;76.39;93514.19;5112564;28;20051;-40
2022/07/11 03:50:04;;;;;;;10.00;5.35;;;;;;;11.65;76.45;93505.88;5112416;28;20114;-40
2022/07/11 03:52:32;;;;;;;6.65;5.35;;;;;;;11.63;76.34;93508.47;5122328;27;20106;-42
2022/07/11 03:54:57;;;;;;;7.70;5.50;;;;;;;11.79;76.51;93512.00;5133225;27;20030;-40
2022/07/11 03:57:23;;;;;;;7.57;4.78;;;;;;;11.81;76.00;93515.69;5132840;27;20416;-40
2022/07/11 03:59:48;;;;;;;4.90;4.40;;;;;;;11.81;76.00;93523.97;5133271;27;20027;-38
2022/07/11 04:02:14;;;;;;;5.75;4.85;;;;;;;11.77;76.06;93520.84;5132926;27;20476;-39
2022/07/11 04:04:39;;;;;;;4.38;3.95;;;;;;;11.91;76.47;93524.16;5132744;27;20110;-39
2022/07/11 04:07:05;;;;;;;8.70;4.50;;;;;;;11.82;77.09;93516.44;5133007;27;20026;-39
2022/07/11 04:09:31;;;;;;;4.85;4.30;;;;;;;11.73;78.10;93512.19;5132917;27;20131;-39
2022/07/11 04:11:56;;;;;;;5.57;3.72;;;;;;;11.71;78.84;93511.28;5129360;27;20028;-39
2022/07/11 04:14:22;;;;;;;6.03;4.22;;;;;;;11.78;79.09;93514.00;5110687;28;20024;-38
2022/07/11 04:16:47;;;;;;;4.78;4.25;;;;;;;11.78;80.13;93518.84;5109083;28;20406;-39
2022/07/11 04:19:13;;;;;;;5.00;4.50;;;;;;;11.83;79.95;93518.63;5111323;28;20020;-39
2022/07/11 04:21:38;;;;;;;4.95;4.45;;;;;;;11.89;80.62;93516.41;5132220;27;20073;-39
2022/07/11 04:24:04;;;;;;;5.30;4.80;;;;;;;12.05;79.65;93523.41;5132448;27;20506;-39
2022/07/11 04:26:30;;;;;;;5.75;4.03;;;;;;;12.22;79.13;93519.28;5112155;27;20431;-39
2022/07/11 04:28:55;;;;;;;4.90;4.28;;;;;;;12.35;79.61;93527.38;5111945;28;20031;-39
2022/07/11 04:31:20;;;;;;;5.57;3.83;;;;;;;12.42;80.08;93532.16;5111715;28;20469;-39
2022/07/11 04:33:46;;;;;;;5.38;4.15;;;;;;;12.51;79.94;93534.34;5110536;28;20020;-39
2022/07/11 04:36:11;;;;;;;5.63;3.90;;;;;;;12.64;78.87;93532.06;5111931;28;20027;-40
2022/07/11 04:38:37;;;;;;;3.92;3.63;;;;;;;12.78;78.26;93530.53;5111632;28;20038;-39
2022/07/11 04:41:02;;;;;;;5.35;3.70;;;;;;;12.84;78.11;93535.88;5111480;28;20028;-39
2022/07/11 04:43:28;;;;;;;4.57;3.85;;;;;;;12.83;79.00;93542.69;5111736;28;20106;-39
2022/07/11 04:45:54;;;;;;;5.32;3.80;;;;;;;12.94;78.91;93545.06;5111590;28;20027;-39
2022/07/11 04:48:19;;;;;;;3.80;3.15;;;;;;;13.11;79.14;93539.63;5111080;28;20564;-39
2022/07/11 04:50:45;;;;;;;5.00;3.47;;;;;;;12.98;79.92;93511.41;5110981;28;20488;-38
2022/07/11 04:53:11;;;;;;;4.07;3.67;;;;;;;13.22;79.54;93547.50;5110024;28;20055;-39
2022/07/11 04:55:40;;;;;;;6.95;3.40;;;;;;;13.28;79.77;93548.03;5112877;27;20579;-40
2022/07/11 04:58:08;;;;;;;4.93;3.55;;;;;;;13.33;79.31;93544.31;5131917;27;20567;-39
2022/07/11 05:00:33;;;;;;;6.18;3.42;;;;;;;13.47;78.73;93544.78;5131837;27;20748;-39
2022/07/11 05:02:58;;;;;;;3.65;3.30;;;;;;;13.56;78.91;93552.44;5131614;27;20023;-40
2022/07/11 05:05:24;;;;;;;5.30;3.28;;;;;;;13.60;78.93;93550.00;5109713;27;20028;-39
2022/07/11 05:07:50;;;;;;;3.47;2.95;;;;;;;13.60;79.31;93550.75;5093139;28;20024;-39
2022/07/11 05:10:15;;;;;;;3.17;2.88;;;;;;;13.64;79.34;93555.94;5110096;27;20105;-39
2022/07/11 05:12:40;;;;;;;3.00;2.75;;;;;;;13.61;77.95;93538.38;5131512;27;20027;-40
2022/07/11 05:15:07;;;;;;;3.30;3.00;;;;;;;13.68;77.97;93543.13;5131456;27;20023;-39
2022/07/11 05:17:32;;;;;;;3.00;2.63;;;;;;;13.78;77.62;93543.22;5131503;27;20023;-39
2022/07/11 05:19:57;;;;;;;3.67;2.85;;;;;;;13.85;77.07;93547.25;5111138;28;20546;-39
2022/07/11 05:22:23;;;;;;;4.20;3.10;;;;;;;13.95;76.97;93545.28;5110125;28;20035;-40
2022/07/11 05:24:48;;;;;;;3.42;3.13;;;;;;;14.08;76.09;93545.72;5109941;28;20027;-39
2022/07/11 05:27:14;;;;;;;3.65;3.25;;;;;;;14.15;76.06;93547.72;5110832;28;20027;-39
2022/07/11 05:29:39;;;;;;;3.67;3.13;;;;;;;14.20;75.70;93546.00;5110419;28;20023;-40
2022/07/11 05:32:06;;;;;;;3.22;2.92;;;;;;;14.27;75.62;93542.41;5110051;27;20062;-41
2022/07/11 05:34:31;;;;;;;6.90;3.50;;;;;;;14.30;75.75;93547.59;5099442;28;20103;-41
2022/07/11 05:36:56;;;;;;;3.28;2.97;;;;;;;14.42;74.71;93543.00;5106147;27;20461;-43
2022/07/11 05:39:22;;;;;;;3.20;2.70;;;;;;;14.48;74.54;93547.59;5122653;27;20019;-41
2022/07/11 05:41:50;;;;;;;4.88;3.00;;;;;;;14.50;75.12;93547.75;5109728;28;20042;-41
2022/07/11 05:44:17;;;;;;;4.07;2.70;;;;;;;14.60;72.79;93540.97;5090531;28;20103;-40
2022/07/11 05:46:42;;;;;;;2.55;2.28;;;;;;;14.67;71.87;93542.19;5118856;28;20067;-41
2022/07/11 05:49:09;;;;;;;2.30;2.10;;;;;;;14.72;72.20;93544.00;5122483;28;20063;-40
2022/07/11 05:51:36;;;;;;;2.42;2.03;;;;;;;14.72;70.93;93536.41;5103626;28;20496;-41
2022/07/11 05:54:02;;;;;;;2.47;2.00;;;;;;;14.76;70.64;93536.72;5092783;28;20050;-41
2022/07/11 05:56:27;;;;;;;4.72;2.22;;;;;;;14.84;71.20;93534.56;5098124;28;20458;-40
2022/07/11 05:58:53;;;;;;;2.30;2.10;;;;;;;14.83;71.03;93527.56;5110354;28;20484;-41
2022/07/11 06:01:18;;;;;;;4.32;2.55;;;;;;;14.96;70.63;93537.59;5110435;28;20011;-41
2022/07/11 06:03:44;;;;;;;3.42;2.08;;;;;;;15.07;70.98;93543.34;5108812;28;20020;-40
2022/07/11 06:06:10;;;;;;;2.28;2.08;;;;;;;15.09;70.67;93543.50;5098993;28;20028;-40
2022/07/11 06:08:42;;;;;;;5.72;2.22;;;;;;;15.14;70.56;93542.53;5089928;28;20097;-41
2022/07/11 06:11:12;;;;;;;3.42;2.50;;;;;;;15.19;71.16;93549.88;5092926;28;20031;-40
2022/07/11 06:13:43;;;;;;;4.30;2.50;;;;;;;15.23;71.41;93546.66;5095950;28;20028;-40
2022/07/11 06:16:09;;;;;;;5.57;2.05;;;;;;;15.31;71.08;93550.06;5099136;28;20027;-41
2022/07/11 06:18:36;;;;;;;3.00;2.00;;;;;;;15.32;68.33;93542.47;5105911;28;20519;-41
2022/07/11 06:21:02;;;;;;;2.95;2.13;;;;;;;15.31;70.34;93541.72;5110470;28;20224;-40
2022/07/11 06:23:28;;;;;;;3.35;2.55;;;;;;;15.42;70.97;93549.53;5110258;28;20019;-40
2022/07/11 06:25:54;;;;;;;3.10;1.92;;;;;;;15.41;69.87;93528.63;5103633;28;20025;-41
2022/07/11 06:28:19;;;;;;;2.22;2.03;;;;;;;15.58;70.67;93548.06;5103695;28;20189;-40
2022/07/11 06:30:45;;;;;;;3.20;2.30;;;;;;;15.72;69.50;93535.22;5110295;28;20098;-40
2022/07/11 06:33:10;;;;;;;4.00;2.40;;;;;;;15.63;70.07;93524.06;5108899;28;20492;-40
2022/07/11 06:35:36;;;;;;;2.97;2.67;;;;;;;15.73;70.19;93533.91;5104679;28;20020;-40
2022/07/11 06:38:01;;;;;;;2.47;2.00;;;;;;;15.59;67.85;93518.91;5101682;28;20205;-40
2022/07/11 06:40:27;;;;;;;4.53;2.97;;;;;;;15.54;68.53;93533.09;5106370;28;20034;-39
2022/07/11 06:42:52;;;;;;;2.63;2.35;;;;;;;15.71;69.58;93546.94;5100152;28;20023;-42
2022/07/11 06:45:18;;;;;;;3.05;2.72;;;;;;;15.83;68.94;93545.81;5108496;28;20106;-40
2022/07/11 06:47:43;;;;;;;2.70;2.50;;;;;;;15.88;69.07;93532.91;5113677;28;20055;-41
2022/07/11 06:50:09;;;;;;;6.03;2.50;;;;;;;16.05;67.46;93540.47;5113355;28;20066;-40
2022/07/11 06:52:34;;;;;;;3.10;2.28;;;;;;;16.13;68.51;93530.66;5113995;27;20023;-42
2022/07/11 06:55:00;;;;;;;2.83;2.63;;;;;;;16.24;68.44;93535.63;5106030;28;20032;-39
2022/07/11 06:57:26;;;;;;;3.38;2.35;;;;;;;16.30;66.94;93524.22;5101937;28;20035;-39
2022/07/11 06:59:52;;;;;;;7.13;2.58;;;;;;;16.32;65.55;93516.75;5098584;28;20032;-40
2022/07/11 07:02:17;;;;;;;3.17;2.20;;;;;;;16.40;66.20;93522.91;5113390;28;20028;-41
2022/07/11 07:04:43;;;;;;;4.03;2.58;;;;;;;16.45;65.58;93516.31;5113664;28;20049;-40
2022/07/11 07:07:08;;;;;;;6.97;3.38;;;;;;;16.48;64.80;93512.34;5113317;28;20413;-40
2022/07/11 07:09:34;;;;;;;4.10;2.75;;;;;;;16.57;64.95;93508.88;5113226;28;20027;-40
2022/07/11 07:11:59;;;;;;;4.80;2.83;;;;;;;16.68;65.94;93508.28;5113330;28;20031;-40
2022/07/11 07:14:24;;;;;;;3.65;2.97;;;;;;;16.78;63.90;93507.56;5113040;28;20072;-39
2022/07/11 07:16:50;;;;;;;3.03;2.30;;;;;;;16.85;63.85;93506.66;5113338;28;20028;-39
2022/07/11 07:19:15;;;;;;;2.40;2.20;;;;;;;17.12;62.74;93507.22;5111328;28;20406;-41
2022/07/11 07:21:41;;;;;;;5.75;4.20;;;;;;;17.19;62.21;93507.06;5112978;28;20027;-39
2022/07/11 07:24:06;;;;;;;2.03;1.90;;;;;;;17.42;61.32;93506.53;5109242;28;20102;-40
2022/07/11 07:26:33;;;;;;;2.33;1.60;;;;;;;17.48;59.00;93518.13;5103177;28;20070;-38
2022/07/11 07:28:58;;;;;;;2.38;1.55;;;;;;;17.60;59.36;93521.06;5104310;28;20069;-38
2022/07/11 07:31:24;;;;;;;3.10;1.38;;;;;;;17.85;56.12;93524.91;5100533;28;20028;-38
2022/07/11 07:33:50;;;;;;;1.70;1.60;;;;;;;18.39;55.83;93519.47;5092371;28;20099;-40
2022/07/11 07:36:16;;;;;;;3.80;1.67;;;;;;;19.36;52.69;93520.19;5096319;28;20055;-40
2022/07/11 07:38:43;;;;;;;1.80;1.10;;;;;;;20.22;45.83;93519.19;5101228;28;20066;-39
2022/07/11 07:41:10;;;;;;;1.15;0.90;;;;;;;20.79;42.69;93476.22;5109919;28;20024;-41
2022/07/11 07:43:35;;;;;;;2.95;1.13;;;;;;;;;;5110293;28;20019;-42
2022/07/11 07:46:01;;;;;;;3.40;1.20;;;;;;;22.20;40.46;93511.34;5109368;28;20031;-40
2022/07/11 07:48:26;;;;;;;1.45;1.17;;;;;;;22.55;40.28;93508.94;5108901;28;20445;-39
2022/07/11 07:50:53;;;;;;;1.75;1.13;;;;;;;23.10;37.81;93512.41;5108548;28;20423;-39
2022/07/11 07:53:19;;;;;;;1.90;1.25;;;;;;;23.39;37.39;93508.88;5109355;28;20528;-40
2022/07/11 07:55:44;;;;;;;5.07;1.58;;;;;;;23.38;35.64;93513.78;5102377;28;20035;-39
2022/07/11 07:58:10;;;;;;;1.42;1.00;;;;;;;23.67;34.30;93496.84;5107852;28;20516;-40
2022/07/11 08:03:19;;;;;;;1.88;1.20;;;;;;;24.81;33.45;93518.22;5106151;28;20523;-41
2022/07/11 08:05:45;;;;;;;2.35;0.75;;;;;;;25.07;32.73;93510.09;5111712;28;20106;-39
2022/07/11 08:08:10;;;;;;;0.88;0.75;;;;;;;25.01;31.99;93512.69;5108320;28;20024;-40
2022/07/11 08:10:36;;;;;;;2.63;1.17;;;;;;;25.11;31.73;93507.44;5109587;27;20058;-41
2022/07/11 08:13:02;;;;;;;3.05;1.35;;;;;;;25.23;31.30;93490.25;5127263;27;20110;-40
2022/07/11 08:15:28;;;;;;;2.38;0.68;;;;;;;25.42;31.37;93518.63;5104477;28;20024;-39
2022/07/11 08:17:53;;;;;;;3.08;0.95;;;;;;;25.16;29.52;93511.91;5111883;28;20152;-40
2022/07/11 08:20:19;;;;;;;2.55;1.15;;;;;;;24.83;30.54;93528.84;5112068;28;20032;-38
2022/07/11 08:22:44;;;;;;;1.42;0.98;;;;;;;25.15;31.05;93524.56;5093347;28;20081;-38
2022/07/11 08:25:10;;;;;;;3.30;0.60;;;;;;;24.69;31.13;93517.66;5091707;28;20039;-39
2022/07/11 08:27:37;;;;;;;11.55;0.90;;;;;;;24.54;29.30;93517.69;5091498;28;20055;-39
2022/07/11 08:30:05;;;;;;;3.45;0.75;;;;;;;25.05;28.72;93532.63;5091301;28;20035;-39
2022/07/11 08:32:30;;;;;;;1.45;0.60;;;;;;;24.95;28.82;93520.88;5091435;28;20028;-39
2022/07/11 08:34:56;;;;;;;1.40;0.60;;;;;;;24.88;29.39;93513.53;5098509;28;20413;-39
2022/07/11 08:37:21;;;;;;;0.90;0.80;;;;;;;24.74;29.99;93513.66;5101794;28;20429;-40
2022/07/11 08:39:47;;;;;;;3.83;0.77;;;;;;;25.04;28.69;93524.78;5136162;27;20076;-39
2022/07/11 08:42:12;;;;;;;2.42;0.85;;;;;;;25.10;28.31;93520.09;5118125;27;20023;-39
2022/07/11 08:44:39;;;;;;;0.80;0.70;;;;;;;24.79;27.26;93525.88;5127358;27;20036;-40
2022/07/11 08:47:05;;;;;;;1.08;0.63;;;;;;;25.23;28.87;93524.88;5109957;27;20055;-40
2022/07/11 08:49:31;;;;;;;2.35;0.60;;;;;;;25.78;27.46;93510.13;5110727;28;20034;-39
2022/07/11 08:51:57;;;;;;;1.70;0.57;;;;;;;25.73;25.33;93500.75;5098380;28;20106;-38
2022/07/11 08:54:23;;;;;;;3.30;0.98;;;;;;;25.05;26.51;93510.03;5091200;28;20047;-39
2022/07/11 08:56:49;;;;;;;0.40;0.40;;;;;;;25.15;27.46;93521.00;5095545;28;20574;-39
2022/07/11 08:59:18;;;;;;;0.50;0.45;;;;;;;25.55;27.87;93517.72;5107487;28;20033;-39
2022/07/11 09:01:45;;;;;;;0.60;0.60;;;;;;;26.27;27.76;93524.75;5109776;27;20065;-40
2022/07/11 09:04:11;;;;;;;4.45;2.05;;;;;;;26.67;26.32;93522.66;5106257;28;20116;-40
2022/07/11 09:06:37;;;;;;;1.40;0.93;;;;;;;26.76;26.53;93522.31;5107351;28;20058;-40
2022/07/11 09:09:02;;;;;;;1.52;0.95;;;;;;;27.05;25.83;93518.34;5106030;28;20047;-40
2022/07/11 09:11:33;;;;;;;4.10;0.75;;;;;;;26.95;26.52;93524.41;5107453;27;20028;-40
2022/07/11 09:13:59;;;;;;;1.95;0.57;;;;;;;27.66;26.17;93529.59;5108119;27;20042;-39
2022/07/11 09:16:28;;;;;;;0.70;0.60;;;;;;;27.92;25.63;93541.03;5107685;27;20027;-39
2022/07/11 09:18:54;;;;;;;4.15;0.85;;;;;;;27.63;24.29;93533.75;5106829;28;20121;-40
2022/07/11 09:26:51;;;;;;;3.40;0.60;;;;;;;27.76;26.26;93532.75;5106752;28;20096;-40
2022/07/11 09:29:20;;;;;;;3.80;0.40;;;;;;;28.46;23.52;93532.06;5103633;28;20024;-40
2022/07/11 09:31:46;;;;;;;3.70;1.40;;;;;;;28.17;25.38;93531.91;5104198;28;20031;-40
2022/07/11 09:34:13;;;;;;;1.52;0.80;;;;;;;27.52;23.44;93543.34;5105772;28;20064;-39
2022/07/11 09:36:45;;;;;;;1.15;0.50;;;;;;;27.71;23.85;93534.00;5105677;28;20449;-40
2022/07/11 09:39:15;;;;;;;2.35;0.45;;;;;;;26.81;24.55;93545.84;5103982;28;20032;-39
2022/07/11 09:41:42;;;;;;;2.55;0.60;;;;;;;25.56;26.15;93535.41;5109867;28;20039;-40
2022/07/11 09:44:18;;;;;;;1.50;0.65;;;;;;;25.14;27.37;93522.38;5107652;28;20556;-38
2022/07/11 09:46:46;;;;;;;1.95;0.45;;;;;;;25.18;27.57;93540.22;5107357;28;20531;-39
2022/07/11 09:49:14;;;;;;;1.50;0.60;;;;;;;25.72;27.23;93541.00;5111119;28;20034;-39
2022/07/11 09:51:40;;;;;;;0.73;0.70;;;;;;;25.40;27.37;93549.59;5105798;28;20059;-40
2022/07/11 09:54:07;;;;;;;1.67;0.60;;;;;;;25.85;27.13;93548.56;5103204;28;20019;-38
2022/07/11 09:56:41;;;;;;;4.30;0.88;;;;;;;26.64;26.02;93547.34;5106885;28;20043;-39
2022/07/11 09:59:08;;;;;;;3.42;0.60;;;;;;;27.04;26.44;93543.13;5103416;28;20024;-39
2022/07/11 10:01:34;;;;;;;2.85;0.40;;;;;;;26.91;27.28;93555.44;5107217;28;20023;-38
2022/07/11 10:04:00;;;;;;;3.50;0.60;;;;;;;26.77;25.43;93554.91;5103566;28;20028;-38
2022/07/11 10:06:26;;;;;;;1.58;0.47;;;;;;;26.97;27.35;93557.75;5110322;28;20074;-38
2022/07/11 10:08:52;;;;;;;1.38;0.52;;;;;;;27.07;27.45;93551.72;5111466;27;20028;-38
2022/07/11 10:11:18;;;;;;;2.30;1.20;;;;;;;27.31;26.08;93552.53;5108225;28;20027;-40
2022/07/11 10:13:44;;;;;;;1.73;0.90;;;;;;;26.87;25.67;93549.63;5109161;28;20051;-39
2022/07/11 10:16:38;;;;;;;0.40;0.40;;;;;;;25.90;26.90;93559.41;5098793;28;20505;-38
2022/07/11 10:19:30;;;;;;;2.00;0.40;;;;;;;25.88;27.42;93562.16;5099131;28;20070;-39
2022/07/11 10:22:16;;;;;;;0.50;0.40;;;;;;;26.07;26.85;93550.19;5099309;27;20103;-39
2022/07/11 10:24:47;;;;;;;3.28;0.68;;;;;;;26.03;26.68;93560.59;5113308;27;20035;-39
2022/07/11 10:27:28;;;;;;;2.45;0.60;;;;;;;26.38;28.33;93557.72;5133594;27;20051;-39
2022/07/11 10:29:53;;;;;;;0.40;0.40;;;;;;;26.60;27.01;93561.34;5134766;27;20035;-38
2022/07/11 10:32:19;;;;;;;0.40;0.40;;;;;;;26.61;27.25;93556.44;5126683;27;20027;-40
2022/07/11 10:34:47;;;;;;;2.85;0.55;;;;;;;26.48;27.02;93543.22;5120543;27;20049;-40
2022/07/11 10:37:13;;;;;;;2.65;0.70;;;;;;;26.91;27.19;93555.44;5134528;27;20035;-39
2022/07/11 10:39:46;;;;;;;1.38;0.60;;;;;;;26.75;27.23;93554.84;5123537;27;20039;-39
2022/07/11 10:42:20;;;;;;;0.68;0.60;;;;;;;26.38;27.63;93566.19;5113919;28;20016;-39
2022/07/11 10:44:54;;;;;;;3.05;0.60;;;;;;;25.37;28.36;93559.38;5109388;28;20028;-39
2022/07/11 10:47:42;;;;;;;0.90;0.60;;;;;;;26.13;27.84;93567.41;5109902;28;20135;-39
2022/07/11 10:50:21;;;;;;;1.33;0.50;;;;;;;26.62;27.70;93564.25;5114888;27;20032;-39
2022/07/11 10:52:48;;;;;;;2.15;0.70;;;;;;;26.82;28.34;93558.63;5107306;28;20074;-39
2022/07/11 10:55:33;;;;;;;1.10;0.55;;;;;;;27.10;27.49;93565.28;5118056;27;20023;-40
2022/07/11 10:58:27;;;;;;;0.95;0.80;;;;;;;27.38;26.28;93563.44;5133279;27;20485;-39
2022/07/11 11:01:10;;;;;;;0.82;0.50;;;;;;;26.81;26.16;93563.56;5107264;28;20416;-38
2022/07/11 11:03:36;;;;;;;1.30;0.77;;;;;;;26.46;27.37;93557.28;5113374;28;20099;-39
2022/07/11 11:06:01;;;;;;;3.13;0.90;;;;;;;26.18;28.75;93562.63;5106964;28;20210;-39
2022/07/11 11:11:06;;;;;;;1.80;0.63;;;;;;;26.58;27.47;93566.94;5110304;28;20031;-39
2022/07/11 11:13:35;;;;;;;1.90;0.60;;;;;;;25.99;27.86;93566.13;5112876;28;20019;-39
2022/07/11 11:16:02;;;;;;;2.38;0.73;;;;;;;25.91;28.21;93566.50;5112959;28;20012;-39
2022/07/11 11:18:34;;;;;;;5.88;0.70;;;;;;;26.06;28.97;93568.50;5112766;28;20020;-38
2022/07/11 11:21:02;;;;;;;4.32;0.68;;;;;;;25.80;29.27;93569.59;5111308;28;20560;-38
2022/07/11 11:23:38;;;;;;;2.83;1.05;;;;;;;25.26;30.15;93566.00;5109777;28;20100;-38
2022/07/11 11:26:07;;;;;;;3.42;0.63;;;;;;;25.01;30.59;93563.53;5112431;27;20084;-38
2022/07/11 11:28:32;;;;;;;;;;;;;;;24.73;29.85;93582.06;5108752;27;20036;-39
2022/07/11 11:31:00;;;;;;;2.05;0.60;;;;;;;24.58;30.41;93580.69;5096617;28;20400;-39
2022/07/11 11:33:27;;;;;;;0.77;0.75;;;;;;;24.71;30.85;93581.97;5092105;28;20028;-38
2022/07/11 11:36:03;;;;;;;3.33;0.60;;;;;;;24.22;29.90;93581.16;5092231;28;20560;-39
2022/07/11 11:38:29;;;;;;;3.17;0.73;;;;;;;24.10;32.76;93558.78;5093228;28;20114;-39
2022/07/11 11:40:55;;;;;;;1.50;0.98;;;;;;;24.32;32.34;93559.75;5111689;28;20491;-39
2022/07/11 11:43:22;;;;;;;0.90;0.70;;;;;;;24.58;31.54;93571.50;5112819;28;20102;-39
2022/07/11 11:45:54;;;;;;;4.50;1.02;;;;;;;24.40;30.98;93571.44;5111370;28;20026;-39
2022/07/11 11:48:46;;;;;;;3.15;0.70;;;;;;;24.12;31.44;93572.97;5109712;28;20039;-39